createdAt,value
2022-12-19T00:03:58.661Z,12.07
2022-12-19T00:09:00.827Z,10.25
2022-12-19T00:14:02.984Z,11.68
2022-12-19T00:19:07.487Z,11.55
2022-12-19T00:24:21.482Z,12.68
2022-12-19T00:29:24.190Z,11.40
2022-12-19T00:34:27.752Z,11.13
2022-12-19T00:39:29.816Z,12.60
2022-12-19T00:44:32.053Z,11.63
2022-12-19T00:49:35.701Z,13.48
2022-12-19T00:54:39.293Z,13.50
2022-12-19T00:59:41.709Z,13.13
2022-12-19T01:04:45.316Z,12.75
2022-12-19T01:09:47.375Z,13.30
2022-12-19T01:14:53.559Z,13.82
2022-12-19T01:19:57.054Z,13.65
2022-12-19T01:24:59.145Z,13.73
2022-12-19T01:30:01.309Z,13.15
2022-12-19T01:35:05.727Z,13.93
2022-12-19T01:40:12.989Z,14.77
2022-12-19T01:45:33.417Z,14.38
2022-12-19T01:50:43.964Z,13.60
2022-12-19T01:55:56.059Z,14.05
2022-12-19T02:00:59.060Z,14.00
2022-12-19T02:06:04.018Z,14.43
2022-12-19T02:11:06.268Z,15.70
2022-12-19T02:16:16.520Z,14.63
2022-12-19T02:21:35.875Z,17.05
2022-12-19T02:26:56.211Z,13.75
2022-12-19T02:32:07.911Z,12.65
2022-12-19T02:37:17.099Z,14.95
2022-12-19T02:42:26.523Z,15.75
2022-12-19T02:47:34.004Z,15.88
2022-12-19T02:52:47.728Z,15.60
2022-12-19T02:58:22.560Z,15.88
2022-12-19T03:03:38.249Z,14.48
2022-12-19T03:08:47.892Z,15.60
2022-12-19T03:13:56.680Z,14.82
2022-12-19T03:19:01.057Z,12.50
2022-12-19T03:24:05.398Z,15.40
2022-12-19T03:29:21.485Z,14.63
2022-12-19T03:34:28.200Z,14.27
2022-12-19T03:39:32.393Z,13.90
2022-12-19T03:44:37.933Z,13.10
2022-12-19T03:49:42.303Z,12.20
2022-12-19T03:54:51.435Z,12.35
2022-12-19T03:59:59.251Z,14.82
2022-12-19T04:05:07.398Z,16.08
2022-12-19T04:10:14.652Z,15.15
2022-12-19T04:15:17.439Z,14.18
2022-12-19T04:20:24.866Z,14.40
2022-12-19T04:25:30.556Z,10.88
2022-12-19T04:30:36.471Z,12.52
2022-12-19T04:35:40.623Z,14.45
2022-12-19T04:40:42.717Z,14.95
2022-12-19T04:45:44.834Z,13.35
2022-12-19T04:50:49.063Z,12.77
2022-12-19T04:55:51.234Z,13.15
2022-12-19T05:00:53.386Z,14.60
2022-12-19T05:06:05.797Z,14.10
2022-12-19T05:11:17.517Z,15.18
2022-12-19T05:16:22.050Z,14.68
2022-12-19T05:21:25.950Z,12.80
2022-12-19T05:26:28.170Z,12.95
2022-12-19T05:31:30.401Z,8.95
2022-12-19T05:36:33.950Z,12.77
2022-12-19T05:41:36.050Z,11.13
2022-12-19T05:46:38.212Z,12.43
2022-12-19T05:51:41.804Z,13.15
2022-12-19T05:56:43.854Z,15.65
2022-12-19T06:01:47.247Z,12.00
2022-12-19T06:06:50.982Z,14.60
2022-12-19T06:11:53.538Z,14.07
2022-12-19T06:16:55.610Z,11.18
2022-12-19T06:21:59.856Z,15.55
2022-12-19T06:27:01.969Z,12.65
2022-12-19T06:32:04.147Z,11.60
2022-12-19T06:37:08.528Z,13.95
2022-12-19T06:42:10.880Z,15.82
2022-12-19T06:47:13.082Z,14.18
2022-12-19T06:52:17.801Z,14.45
2022-12-19T06:57:19.955Z,11.75
2022-12-19T07:02:26.778Z,12.93
2022-12-19T07:07:30.637Z,14.60
2022-12-19T07:12:32.799Z,13.80
2022-12-19T07:17:35.031Z,12.55
2022-12-19T07:22:39.054Z,11.27
2022-12-19T07:27:41.152Z,13.90
2022-12-19T07:32:43.445Z,11.63
2022-12-19T07:37:46.959Z,12.57
2022-12-19T07:42:49.134Z,13.32
2022-12-19T07:47:51.630Z,12.65
2022-12-19T07:52:55.281Z,13.55
2022-12-19T07:57:57.522Z,13.25
2022-12-19T08:02:59.936Z,11.27
2022-12-19T08:08:03.890Z,12.48
2022-12-19T08:13:06.028Z,11.82
2022-12-19T08:18:08.203Z,11.52
2022-12-19T08:23:11.781Z,16.05
2022-12-19T08:28:13.977Z,12.65
2022-12-19T08:33:16.196Z,13.23
2022-12-19T08:38:19.947Z,11.40
2022-12-19T08:43:22.182Z,12.70
2022-12-19T08:48:24.538Z,12.65
2022-12-19T08:53:29.829Z,14.43
2022-12-19T08:58:32.910Z,12.10
2022-12-19T09:03:42.856Z,10.63
2022-12-19T09:09:00.333Z,10.18
2022-12-19T09:14:02.828Z,9.25
2022-12-19T09:19:05.071Z,11.43
2022-12-19T09:24:09.431Z,10.45
2022-12-19T09:29:19.880Z,10.13
2022-12-19T09:34:24.043Z,9.65
2022-12-19T09:39:29.295Z,10.80
2022-12-19T09:44:48.602Z,9.00
2022-12-19T09:49:52.804Z,9.18
2022-12-19T09:55:09.553Z,9.45
2022-12-19T10:00:19.270Z,8.70
2022-12-19T10:06:02.179Z,9.07
2022-12-19T10:12:47.845Z,7.88
2022-12-19T10:16:35.747Z,7.80
2022-12-19T10:22:16.934Z,7.10
2022-12-19T10:27:24.122Z,8.10
2022-12-19T10:32:36.928Z,8.10
2022-12-19T10:37:49.551Z,8.18
2022-12-19T10:42:58.867Z,8.38
2022-12-19T10:48:12.129Z,9.38
2022-12-19T10:58:24.259Z,7.88
2022-12-19T11:03:26.606Z,9.30
2022-12-19T11:08:30.684Z,6.05
2022-12-19T11:19:25.178Z,8.80
2022-12-19T11:29:45.131Z,8.63
2022-12-19T11:30:48.177Z,8.05
2022-12-19T11:35:48.670Z,8.25
2022-12-19T11:40:55.075Z,6.45
2022-12-19T11:46:04.663Z,8.00
2022-12-19T11:51:18.627Z,7.13
2022-12-19T11:56:24.625Z,7.40
2022-12-19T12:02:06.742Z,7.63
2022-12-19T12:07:18.531Z,7.00
2022-12-19T12:17:48.828Z,6.13
2022-12-19T12:29:41.729Z,6.82
2022-12-19T12:32:01.908Z,7.45
2022-12-19T12:32:03.987Z,7.93
2022-12-19T12:35:54.536Z,6.57
2022-12-19T12:40:24.235Z,7.00
2022-12-19T12:45:35.267Z,7.78
2022-12-19T12:50:42.463Z,6.82
2022-12-19T12:55:44.782Z,7.35
2022-12-19T13:01:09.027Z,6.63
2022-12-19T13:06:26.496Z,7.47
2022-12-19T13:11:40.670Z,7.57
2022-12-19T13:16:52.203Z,6.82
2022-12-19T13:22:18.878Z,7.20
2022-12-19T13:27:41.010Z,26.27
2022-12-19T13:33:08.933Z,19.98
2022-12-19T13:39:57.349Z,9.35
2022-12-19T13:43:48.904Z,7.93
2022-12-19T13:48:53.856Z,7.38
2022-12-19T13:53:59.870Z,6.75
2022-12-19T13:59:04.873Z,8.17
2022-12-19T14:04:10.195Z,6.72
2022-12-19T14:11:31.639Z,9.55
2022-12-19T14:15:02.069Z,25.85
2022-12-19T14:22:07.946Z,7.57
2022-12-19T14:28:22.083Z,5.85
2022-12-19T14:31:14.530Z,7.00
2022-12-19T14:36:26.211Z,8.70
2022-12-19T14:41:41.285Z,6.68
2022-12-19T14:51:51.545Z,7.55
2022-12-19T14:54:37.730Z,7.22
2022-12-19T14:58:53.053Z,6.60
2022-12-19T15:03:35.878Z,6.50
2022-12-19T15:10:24.149Z,6.85
2022-12-19T15:14:53.360Z,7.13
2022-12-19T15:19:27.348Z,7.05
2022-12-19T15:24:29.454Z,5.95
2022-12-19T15:29:34.278Z,6.40
2022-12-19T15:34:41.870Z,7.68
2022-12-19T15:39:50.793Z,6.18
2022-12-19T15:44:55.143Z,6.38
2022-12-19T15:49:57.663Z,6.82
2022-12-19T15:54:59.908Z,6.55
2022-12-19T16:00:07.812Z,7.20
2022-12-19T16:05:11.018Z,5.80
2022-12-19T16:10:14.736Z,6.43
2022-12-19T16:15:25.123Z,5.82
2022-12-19T16:20:29.451Z,7.15
2022-12-19T16:25:35.622Z,7.22
2022-12-19T16:30:39.219Z,6.82
2022-12-19T16:36:03.705Z,5.35
2022-12-19T16:41:04.058Z,5.57
2022-12-19T16:46:15.377Z,7.07
2022-12-19T16:51:19.855Z,6.43
2022-12-19T16:56:25.172Z,5.18
2022-12-19T17:01:29.234Z,6.18
2022-12-19T17:06:31.602Z,6.50
2022-12-19T17:11:33.752Z,6.32
2022-12-19T17:16:37.659Z,6.75
2022-12-19T17:21:39.881Z,6.57
2022-12-19T17:26:42.171Z,6.32
2022-12-19T17:31:45.910Z,7.28
2022-12-19T17:36:48.055Z,7.13
2022-12-19T17:41:50.945Z,6.78
2022-12-19T17:46:54.483Z,6.53
2022-12-19T17:51:58.633Z,6.75
2022-12-19T17:57:00.854Z,7.10
2022-12-19T18:02:04.855Z,6.75
2022-12-19T18:07:13.459Z,6.97
2022-12-19T18:12:15.711Z,7.55
2022-12-19T18:17:23.094Z,7.68
2022-12-19T18:22:25.264Z,8.13
2022-12-19T18:27:27.420Z,7.72
2022-12-19T18:32:31.843Z,7.13
2022-12-19T18:37:33.975Z,6.28
2022-12-19T18:42:36.075Z,8.75
2022-12-19T18:47:40.150Z,7.05
2022-12-19T18:52:42.412Z,7.53
2022-12-19T18:57:48.769Z,6.68
2022-12-19T19:02:57.050Z,6.80
2022-12-19T19:08:11.263Z,8.07
2022-12-19T19:13:18.887Z,6.20
2022-12-19T19:18:25.894Z,6.82
2022-12-19T19:23:33.466Z,6.47
2022-12-19T19:28:35.566Z,5.90
2022-12-19T19:33:43.163Z,5.05
2022-12-19T19:38:51.770Z,6.88
2022-12-19T19:43:53.966Z,6.82
2022-12-19T19:48:57.676Z,6.80
2022-12-19T19:54:00.057Z,6.50
2022-12-19T19:59:02.206Z,6.60
2022-12-19T20:04:06.851Z,8.30
2022-12-19T20:09:09.174Z,5.25
2022-12-19T20:14:11.520Z,6.20
2022-12-19T20:19:15.065Z,5.78
2022-12-19T20:24:19.553Z,5.60
2022-12-19T20:29:21.788Z,5.70
2022-12-19T20:34:25.413Z,5.60
2022-12-19T20:39:27.521Z,5.43
2022-12-19T20:44:29.890Z,5.07
2022-12-19T20:49:33.648Z,5.82
2022-12-19T20:54:35.969Z,5.22
2022-12-19T20:59:38.155Z,5.07
2022-12-19T21:04:41.870Z,5.63
2022-12-19T21:09:43.998Z,5.20
2022-12-19T21:14:46.157Z,5.63
2022-12-19T21:19:49.739Z,5.07
2022-12-19T21:24:51.819Z,4.88
2022-12-19T21:29:53.913Z,4.57
2022-12-19T21:34:57.475Z,4.28
2022-12-19T21:39:59.645Z,4.70
2022-12-19T21:45:01.763Z,5.18
2022-12-19T21:50:06.384Z,4.72
2022-12-19T21:55:09.819Z,4.25
2022-12-19T22:00:13.414Z,4.50
2022-12-19T22:05:17.074Z,4.25
2022-12-19T22:10:19.353Z,4.30
2022-12-19T22:15:21.478Z,3.85
2022-12-19T22:20:25.007Z,4.22
2022-12-19T22:25:27.108Z,3.50
2022-12-19T22:30:29.385Z,4.47
2022-12-19T22:35:35.126Z,3.67
2022-12-19T22:40:37.244Z,4.05
2022-12-19T22:45:40.757Z,3.45
2022-12-19T22:50:47.534Z,3.00
2022-12-19T22:55:49.663Z,3.88
2022-12-19T23:00:51.803Z,3.55
2022-12-19T23:05:55.720Z,3.70
2022-12-19T23:10:57.879Z,3.42
2022-12-19T23:16:00.116Z,3.33
2022-12-19T23:21:09.139Z,3.95
2022-12-19T23:26:15.822Z,3.80
2022-12-19T23:31:18.705Z,3.95
2022-12-19T23:36:45.056Z,2.75
2022-12-19T23:41:45.165Z,3.22
2022-12-19T23:46:47.650Z,3.08
2022-12-19T23:51:51.316Z,2.92
2022-12-19T23:56:53.513Z,3.08
